DLH4PW EDDG-EDDM
Flight info
| Callsign | DLH4PW |
|---|---|
| Flight time | 0h 48m |
| Altitude | 31000 |
| Route | DOMEG3Y DOMEG Z841 GMH Q603 TESGA L603 BOMBI T104 HAREM/N0431F270 T104 ROKIL ROKIL1A |
| Aircraft | A319/M-SDE3FGHIRWY/LB1 |
Departure
| Time | 2026-05-08 08:34 |
|---|---|
| Airport | Münster Osnabrück Airport (EDDG) |
Arrival
| Time | 2026-05-08 09:23 |
|---|---|
| Airport | Munich Airport (EDDM) |
| Time | Latitude | Longitude | Altitude | Speed | Heading |
|---|---|---|---|---|---|
| 2026-05-08 08:12 | 52.13158 | 7.69301 | 168 ft | 0 kts | 194° |
| 2026-05-08 08:25 | 52.13175 | 7.69309 | 168 ft | 4 kts | 196° |
| 2026-05-08 08:26 | 52.13201 | 7.69323 | 168 ft | 4 kts | 204° |
| 2026-05-08 08:26 | 52.13224 | 7.69344 | 168 ft | 4 kts | 223° |
| 2026-05-08 08:26 | 52.13237 | 7.69372 | 168 ft | 1 kts | 251° |
| 2026-05-08 08:29 | 52.13236 | 7.69368 | 168 ft | 2 kts | 251° |
| 2026-05-08 08:29 | 52.13223 | 7.69303 | 168 ft | 10 kts | 252° |
| 2026-05-08 08:29 | 52.13194 | 7.69167 | 168 ft | 15 kts | 249° |
| 2026-05-08 08:30 | 52.13160 | 7.69007 | 168 ft | 16 kts | 253° |
| 2026-05-08 08:30 | 52.13125 | 7.68834 | 168 ft | 17 kts | 251° |
| 2026-05-08 08:30 | 52.13103 | 7.68470 | 168 ft | 14 kts | 270° |
| 2026-05-08 08:31 | 52.13159 | 7.68375 | 168 ft | 14 kts | 342° |
| 2026-05-08 08:31 | 52.13240 | 7.68311 | 168 ft | 13 kts | 306° |
| 2026-05-08 08:31 | 52.13222 | 7.68161 | 168 ft | 15 kts | 251° |
| 2026-05-08 08:31 | 52.13185 | 7.67986 | 168 ft | 17 kts | 250° |
| 2026-05-08 08:32 | 52.13142 | 7.67788 | 168 ft | 20 kts | 251° |
| 2026-05-08 08:32 | 52.13094 | 7.67564 | 167 ft | 22 kts | 251° |
| 2026-05-08 08:32 | 52.13047 | 7.67340 | 167 ft | 16 kts | 250° |
| 2026-05-08 08:32 | 52.13028 | 7.67190 | 168 ft | 13 kts | 276° |
| 2026-05-08 08:33 | 52.13078 | 7.67062 | 167 ft | 15 kts | 332° |
| 2026-05-08 08:33 | 52.13161 | 7.67045 | 167 ft | 8 kts | 43° |
| 2026-05-08 08:33 | 52.13188 | 7.67178 | 165 ft | 29 kts | 71° |
| 2026-05-08 08:33 | 52.13348 | 7.67929 | 167 ft | 108 kts | 71° |
| 2026-05-08 08:34 | 52.13648 | 7.69370 | 390 ft | 144 kts | 72° |
| 2026-05-08 08:34 | 52.13676 | 7.70944 | 1160 ft | 142 kts | 110° |
| 2026-05-08 08:34 | 52.12912 | 7.72024 | 1653 ft | 166 kts | 163° |
| 2026-05-08 08:34 | 52.11670 | 7.71891 | 2052 ft | 196 kts | 193° |
| 2026-05-08 08:35 | 52.10273 | 7.71220 | 2508 ft | 221 kts | 191° |
| 2026-05-08 08:35 | 52.08694 | 7.70606 | 3085 ft | 245 kts | 190° |
| 2026-05-08 08:35 | 52.06982 | 7.70008 | 3915 ft | 256 kts | 190° |
| 2026-05-08 08:35 | 52.05217 | 7.69419 | 4927 ft | 261 kts | 190° |
| 2026-05-08 08:36 | 52.03416 | 7.68834 | 5942 ft | 266 kts | 190° |
| 2026-05-08 08:36 | 52.01581 | 7.68250 | 6907 ft | 271 kts | 190° |
| 2026-05-08 08:36 | 51.99716 | 7.67661 | 7862 ft | 275 kts | 190° |
| 2026-05-08 08:36 | 51.97832 | 7.67069 | 8846 ft | 277 kts | 191° |
| 2026-05-08 08:37 | 51.95927 | 7.66475 | 9832 ft | 280 kts | 191° |
| 2026-05-08 08:37 | 51.93994 | 7.65877 | 10579 ft | 291 kts | 191° |
| 2026-05-08 08:37 | 51.91924 | 7.65235 | 10900 ft | 315 kts | 191° |
| 2026-05-08 08:37 | 51.89703 | 7.64540 | 11314 ft | 333 kts | 191° |
| 2026-05-08 08:38 | 51.87401 | 7.63819 | 11987 ft | 341 kts | 191° |
| 2026-05-08 08:38 | 51.85052 | 7.63082 | 12774 ft | 345 kts | 192° |
| 2026-05-08 08:38 | 51.82680 | 7.62340 | 13570 ft | 350 kts | 192° |
| 2026-05-08 08:38 | 51.80283 | 7.61596 | 14323 ft | 353 kts | 192° |
| 2026-05-08 08:39 | 51.77855 | 7.60842 | 14973 ft | 358 kts | 192° |
| 2026-05-08 08:39 | 51.75392 | 7.60078 | 15645 ft | 362 kts | 192° |
| 2026-05-08 08:39 | 51.72884 | 7.59455 | 16315 ft | 368 kts | 185° |
| 2026-05-08 08:39 | 51.70311 | 7.59573 | 16985 ft | 374 kts | 174° |
| 2026-05-08 08:40 | 51.67759 | 7.60519 | 17653 ft | 380 kts | 163° |
| 2026-05-08 08:40 | 51.65253 | 7.61964 | 18324 ft | 384 kts | 162° |
| 2026-05-08 08:40 | 51.62720 | 7.63424 | 18920 ft | 388 kts | 162° |
| 2026-05-08 08:40 | 51.60165 | 7.64884 | 19525 ft | 392 kts | 162° |
| 2026-05-08 08:41 | 51.57587 | 7.66353 | 20130 ft | 395 kts | 162° |
| 2026-05-08 08:41 | 51.54988 | 7.67832 | 20744 ft | 398 kts | 162° |
| 2026-05-08 08:41 | 51.52370 | 7.69318 | 21358 ft | 401 kts | 162° |
| 2026-05-08 08:41 | 51.49730 | 7.70812 | 21952 ft | 403 kts | 162° |
| 2026-05-08 08:42 | 51.47072 | 7.72314 | 22499 ft | 407 kts | 162° |
| 2026-05-08 08:42 | 51.44389 | 7.73827 | 23046 ft | 410 kts | 162° |
| 2026-05-08 08:42 | 51.41684 | 7.75351 | 23604 ft | 414 kts | 162° |
| 2026-05-08 08:42 | 51.38960 | 7.76887 | 24063 ft | 417 kts | 162° |
| 2026-05-08 08:43 | 51.36217 | 7.78435 | 24518 ft | 419 kts | 162° |
| 2026-05-08 08:43 | 51.33458 | 7.79990 | 24971 ft | 421 kts | 162° |
| 2026-05-08 08:43 | 51.30688 | 7.81550 | 25399 ft | 424 kts | 162° |
| 2026-05-08 08:43 | 51.27897 | 7.83119 | 25837 ft | 426 kts | 162° |
| 2026-05-08 08:44 | 51.25092 | 7.84695 | 26288 ft | 429 kts | 162° |
| 2026-05-08 08:44 | 51.22270 | 7.86276 | 26722 ft | 431 kts | 163° |
| 2026-05-08 08:44 | 51.19435 | 7.87863 | 27150 ft | 434 kts | 162° |
| 2026-05-08 08:44 | 51.16646 | 7.89751 | 27562 ft | 439 kts | 154° |
| 2026-05-08 08:45 | 51.14021 | 7.92274 | 27975 ft | 442 kts | 149° |
| 2026-05-08 08:45 | 51.11422 | 7.94929 | 28389 ft | 445 kts | 149° |
| 2026-05-08 08:45 | 51.08812 | 7.97593 | 28786 ft | 447 kts | 149° |
| 2026-05-08 08:45 | 51.06186 | 8.00268 | 29166 ft | 450 kts | 149° |
| 2026-05-08 08:46 | 51.03544 | 8.02949 | 29532 ft | 452 kts | 149° |
| 2026-05-08 08:46 | 51.00885 | 8.05645 | 29891 ft | 454 kts | 149° |
| 2026-05-08 08:46 | 50.98212 | 8.08356 | 30230 ft | 457 kts | 149° |
| 2026-05-08 08:46 | 50.95524 | 8.11079 | 30522 ft | 460 kts | 150° |
| 2026-05-08 08:47 | 50.92817 | 8.13807 | 30821 ft | 462 kts | 150° |
| 2026-05-08 08:47 | 50.90103 | 8.16528 | 31086 ft | 461 kts | 150° |
| 2026-05-08 08:47 | 50.84764 | 8.21881 | 31142 ft | 449 kts | 150° |
| 2026-05-08 08:48 | 50.79508 | 8.27158 | 31142 ft | 447 kts | 150° |
| 2026-05-08 08:48 | 50.74261 | 8.32406 | 31142 ft | 446 kts | 150° |
| 2026-05-08 08:49 | 50.69015 | 8.37636 | 31143 ft | 446 kts | 150° |
| 2026-05-08 08:49 | 50.63760 | 8.42846 | 31146 ft | 446 kts | 150° |
| 2026-05-08 08:50 | 50.58504 | 8.48051 | 31146 ft | 447 kts | 150° |
| 2026-05-08 08:50 | 50.53247 | 8.53266 | 31135 ft | 447 kts | 150° |
| 2026-05-08 08:51 | 50.47977 | 8.58462 | 31138 ft | 447 kts | 150° |
| 2026-05-08 08:51 | 50.42469 | 8.62828 | 31138 ft | 442 kts | 165° |
| 2026-05-08 08:52 | 50.36590 | 8.65592 | 31133 ft | 441 kts | 166° |
| 2026-05-08 08:52 | 50.30714 | 8.68339 | 31119 ft | 440 kts | 166° |
| 2026-05-08 08:53 | 50.24848 | 8.71090 | 31116 ft | 440 kts | 166° |
| 2026-05-08 08:53 | 50.18982 | 8.73840 | 31118 ft | 440 kts | 166° |
| 2026-05-08 08:54 | 50.13116 | 8.76559 | 31122 ft | 440 kts | 166° |
| 2026-05-08 08:54 | 50.07308 | 8.79581 | 31121 ft | 443 kts | 158° |
| 2026-05-08 08:55 | 50.02945 | 8.83915 | 31118 ft | 448 kts | 142° |
| 2026-05-08 08:55 | 49.98361 | 8.90398 | 31117 ft | 448 kts | 140° |
| 2026-05-08 08:56 | 49.93744 | 8.96905 | 31124 ft | 448 kts | 140° |
| 2026-05-08 08:56 | 49.89122 | 9.03396 | 31117 ft | 448 kts | 140° |
| 2026-05-08 08:57 | 49.84505 | 9.09880 | 31106 ft | 448 kts | 140° |
| 2026-05-08 08:57 | 49.79882 | 9.16358 | 31098 ft | 448 kts | 141° |
| 2026-05-08 08:58 | 49.75251 | 9.22818 | 31101 ft | 448 kts | 141° |
| 2026-05-08 08:58 | 49.70620 | 9.29267 | 31109 ft | 448 kts | 141° |
| 2026-05-08 08:59 | 49.65983 | 9.35702 | 31108 ft | 448 kts | 141° |
| 2026-05-08 08:59 | 49.61370 | 9.42266 | 31110 ft | 450 kts | 135° |
| 2026-05-08 09:00 | 49.57233 | 9.49516 | 31094 ft | 450 kts | 134° |
| 2026-05-08 09:00 | 49.53129 | 9.56728 | 31104 ft | 450 kts | 134° |
| 2026-05-08 09:01 | 49.48992 | 9.63967 | 31110 ft | 450 kts | 134° |
| 2026-05-08 09:01 | 49.44825 | 9.71246 | 31113 ft | 451 kts | 134° |
| 2026-05-08 09:02 | 49.40677 | 9.78465 | 31117 ft | 451 kts | 134° |
| 2026-05-08 09:02 | 49.36520 | 9.85668 | 31109 ft | 451 kts | 134° |
| 2026-05-08 09:03 | 49.32348 | 9.92861 | 31114 ft | 452 kts | 135° |
| 2026-05-08 09:03 | 49.28160 | 10.00065 | 30809 ft | 456 kts | 135° |
| 2026-05-08 09:04 | 49.26053 | 10.03685 | 29722 ft | 452 kts | 134° |
| 2026-05-08 09:04 | 49.23987 | 10.07239 | 29076 ft | 444 kts | 134° |
| 2026-05-08 09:04 | 49.21939 | 10.10747 | 28377 ft | 441 kts | 134° |
| 2026-05-08 09:04 | 49.19898 | 10.14231 | 27710 ft | 438 kts | 134° |
| 2026-05-08 09:05 | 49.17875 | 10.17681 | 27067 ft | 434 kts | 134° |
| 2026-05-08 09:05 | 49.15867 | 10.21103 | 26423 ft | 431 kts | 134° |
| 2026-05-08 09:05 | 49.13873 | 10.24504 | 25789 ft | 428 kts | 134° |
| 2026-05-08 09:05 | 49.11870 | 10.27836 | 25175 ft | 425 kts | 135° |
| 2026-05-08 09:06 | 49.09847 | 10.31106 | 24564 ft | 422 kts | 136° |
| 2026-05-08 09:06 | 49.07816 | 10.34334 | 23947 ft | 420 kts | 136° |
| 2026-05-08 09:06 | 49.05789 | 10.37537 | 23287 ft | 418 kts | 136° |
| 2026-05-08 09:06 | 49.03779 | 10.40717 | 22698 ft | 415 kts | 136° |
| 2026-05-08 09:07 | 49.01798 | 10.43876 | 22172 ft | 411 kts | 135° |
| 2026-05-08 09:07 | 48.99836 | 10.47018 | 21639 ft | 408 kts | 135° |
| 2026-05-08 09:07 | 48.97887 | 10.50135 | 21137 ft | 405 kts | 135° |
| 2026-05-08 09:07 | 48.95952 | 10.53224 | 20641 ft | 402 kts | 135° |
| 2026-05-08 09:08 | 48.94029 | 10.56289 | 20151 ft | 399 kts | 135° |
| 2026-05-08 09:08 | 48.92121 | 10.59324 | 19681 ft | 395 kts | 135° |
| 2026-05-08 09:08 | 48.90227 | 10.62336 | 19209 ft | 392 kts | 135° |
| 2026-05-08 09:08 | 48.88348 | 10.65319 | 18736 ft | 389 kts | 135° |
| 2026-05-08 09:09 | 48.86479 | 10.68282 | 18222 ft | 387 kts | 135° |
| 2026-05-08 09:09 | 48.84627 | 10.71220 | 17722 ft | 383 kts | 135° |
| 2026-05-08 09:09 | 48.82793 | 10.74128 | 17210 ft | 380 kts | 135° |
| 2026-05-08 09:09 | 48.80998 | 10.76965 | 16724 ft | 376 kts | 135° |
| 2026-05-08 09:10 | 48.79190 | 10.79812 | 16208 ft | 373 kts | 135° |
| 2026-05-08 09:10 | 48.77393 | 10.82630 | 15712 ft | 371 kts | 135° |
| 2026-05-08 09:10 | 48.75606 | 10.85431 | 15198 ft | 369 kts | 135° |
| 2026-05-08 09:10 | 48.73826 | 10.88216 | 14677 ft | 367 kts | 135° |
| 2026-05-08 09:11 | 48.72054 | 10.90983 | 14166 ft | 365 kts | 135° |
| 2026-05-08 09:11 | 48.70290 | 10.93741 | 13615 ft | 364 kts | 135° |
| 2026-05-08 09:11 | 48.68538 | 10.96481 | 13084 ft | 360 kts | 135° |
| 2026-05-08 09:11 | 48.66803 | 10.99190 | 12556 ft | 357 kts | 135° |
| 2026-05-08 09:12 | 48.65079 | 11.01876 | 12028 ft | 355 kts | 135° |
| 2026-05-08 09:12 | 48.63364 | 11.04538 | 11486 ft | 352 kts | 135° |
| 2026-05-08 09:12 | 48.61660 | 11.07181 | 10963 ft | 350 kts | 135° |
| 2026-05-08 09:12 | 48.59981 | 11.09784 | 10683 ft | 337 kts | 136° |
| 2026-05-08 09:13 | 48.58398 | 11.12218 | 10548 ft | 313 kts | 138° |
| 2026-05-08 09:13 | 48.56728 | 11.14193 | 10233 ft | 300 kts | 148° |
| 2026-05-08 09:13 | 48.55004 | 11.15933 | 10018 ft | 296 kts | 148° |
| 2026-05-08 09:13 | 48.53303 | 11.17660 | 9857 ft | 294 kts | 148° |
| 2026-05-08 09:14 | 48.51613 | 11.19399 | 9719 ft | 294 kts | 145° |
| 2026-05-08 09:14 | 48.50100 | 11.21481 | 9464 ft | 296 kts | 137° |
| 2026-05-08 09:14 | 48.48628 | 11.23679 | 9016 ft | 296 kts | 137° |
| 2026-05-08 09:14 | 48.47182 | 11.25837 | 8461 ft | 291 kts | 137° |
| 2026-05-08 09:15 | 48.45745 | 11.27973 | 7823 ft | 289 kts | 137° |
| 2026-05-08 09:15 | 48.44323 | 11.30080 | 7230 ft | 285 kts | 137° |
| 2026-05-08 09:15 | 48.42918 | 11.32161 | 6644 ft | 281 kts | 136° |
| 2026-05-08 09:15 | 48.41530 | 11.34215 | 6016 ft | 279 kts | 136° |
| 2026-05-08 09:16 | 48.40158 | 11.36243 | 5720 ft | 270 kts | 136° |
| 2026-05-08 09:16 | 48.38855 | 11.38171 | 5589 ft | 256 kts | 136° |
| 2026-05-08 09:16 | 48.37631 | 11.39979 | 5477 ft | 239 kts | 136° |
| 2026-05-08 09:16 | 48.36470 | 11.41696 | 5380 ft | 229 kts | 136° |
| 2026-05-08 09:17 | 48.35437 | 11.43439 | 5277 ft | 219 kts | 123° |
| 2026-05-08 09:17 | 48.34795 | 11.45443 | 5185 ft | 209 kts | 107° |
| 2026-05-08 09:17 | 48.34477 | 11.47507 | 5109 ft | 196 kts | 102° |
| 2026-05-08 09:17 | 48.34230 | 11.49461 | 5016 ft | 185 kts | 93° |
| 2026-05-08 09:18 | 48.34297 | 11.51308 | 4998 ft | 170 kts | 84° |
| 2026-05-08 09:18 | 48.34417 | 11.52994 | 4995 ft | 155 kts | 84° |
| 2026-05-08 09:18 | 48.34537 | 11.54570 | 4963 ft | 149 kts | 83° |
| 2026-05-08 09:18 | 48.34657 | 11.56111 | 4731 ft | 148 kts | 83° |
| 2026-05-08 09:19 | 48.34778 | 11.57644 | 4421 ft | 149 kts | 83° |
| 2026-05-08 09:19 | 48.34903 | 11.59228 | 4020 ft | 156 kts | 83° |
| 2026-05-08 09:19 | 48.35032 | 11.60860 | 3682 ft | 156 kts | 83° |
| 2026-05-08 09:19 | 48.35154 | 11.62413 | 3431 ft | 143 kts | 83° |
| 2026-05-08 09:20 | 48.35267 | 11.63843 | 3225 ft | 135 kts | 83° |
| 2026-05-08 09:20 | 48.35376 | 11.65233 | 3040 ft | 133 kts | 83° |
| 2026-05-08 09:20 | 48.35483 | 11.66604 | 2861 ft | 132 kts | 83° |
| 2026-05-08 09:20 | 48.35586 | 11.67967 | 2703 ft | 130 kts | 83° |
| 2026-05-08 09:21 | 48.35693 | 11.69327 | 2517 ft | 131 kts | 82° |
| 2026-05-08 09:21 | 48.35816 | 11.70689 | 2319 ft | 132 kts | 81° |
| 2026-05-08 09:22 | 48.36411 | 11.78508 | 1478 ft | 74 kts | 83° |
| 2026-05-08 09:23 | 48.36455 | 11.79146 | 1485 ft | 39 kts | 90° |
| 2026-05-08 09:23 | 48.36401 | 11.79424 | 1482 ft | 21 kts | 113° |
| 2026-05-08 09:23 | 48.36343 | 11.79625 | 1477 ft | 21 kts | 113° |
| 2026-05-08 09:23 | 48.36278 | 11.79806 | 1475 ft | 19 kts | 142° |
| 2026-05-08 09:24 | 48.36160 | 11.79842 | 1485 ft | 16 kts | 180° |
| 2026-05-08 09:24 | 48.36123 | 11.79706 | 1480 ft | 15 kts | 264° |
| 2026-05-08 09:24 | 48.36111 | 11.79545 | 1485 ft | 16 kts | 262° |
| 2026-05-08 09:24 | 48.36031 | 11.79489 | 1485 ft | 15 kts | 175° |
| 2026-05-08 09:25 | 48.35926 | 11.79508 | 1479 ft | 15 kts | 173° |
| 2026-05-08 09:25 | 48.35819 | 11.79529 | 1482 ft | 15 kts | 162° |
| 2026-05-08 09:25 | 48.35804 | 11.79665 | 1485 ft | 14 kts | 83° |
| 2026-05-08 09:25 | 48.35815 | 11.79820 | 1485 ft | 15 kts | 83° |
| 2026-05-08 09:26 | 48.35827 | 11.79982 | 1485 ft | 15 kts | 83° |
| 2026-05-08 09:26 | 48.35776 | 11.80067 | 1484 ft | 7 kts | 171° |
| 2026-05-08 09:26 | 48.35737 | 11.80048 | 1481 ft | 7 kts | 251° |
| 2026-05-08 09:26 | 48.35730 | 11.79976 | 1476 ft | 7 kts | 263° |
| 2026-05-08 09:27 | 48.35728 | 11.79949 | 1479 ft | 0 kts | 263° |
| 2026-05-08 09:30 | 48.35744 | 11.79929 | 1476 ft | 0 kts | 263° |
| 2026-05-08 09:30 | 48.35666 | 11.79945 | 1474 ft | 0 kts | 263° |
| 2026-05-08 09:31 | 48.35632 | 11.79975 | 1473 ft | 0 kts | 263° |